Terminal Aerodrome Forecast
Issued by NWS Shreveport, LA

Home | Current Version | Previous Version | Text Only | Print | Product List | Glossary On
Versions: 1 2 3 4 5 6 7 8 9 10 11 12
000
FTUS44 KSHV 281136
TAFELD
TAF
KELD 281136Z 2812/2912 22006KT P6SM VCSH BKN120 BKN250
     FM281700 25009KT P6SM SCT045 BKN110 BKN250
     FM290000 25006KT P6SM VCTS BKN050CB OVC080
     FM290600 VRB04KT P6SM VCTS OVC050CB=

USA.gov is the U.S. government's official web portal to all federal, state and local government web resources and services.